Terminal Aerodrome Forecast
Issued by NWS

Home | Current Version | Previous Version | Graphics & Text | Print | Product List | Glossary On
Versions: 1 2 3 4 5 6 7 8 9 10 11 12 13
205
FTUS43 KBIS 271139
TAFJMS
TAF
KJMS 271139Z 2712/2812 VRB03KT P6SM VCFG SKC
      TEMPO 2712/2713 2SM BR
     FM271500 13006KT P6SM VCSH BKN100
     FM271800 13005KT P6SM FEW100 SCT200=

USA.gov is the U.S. government's official web portal to all federal, state and local government web resources and services.